createdAt,value
2023-01-08T12:19:45.434Z,-3.07
2023-01-08T12:22:12.296Z,-3.08
2023-01-08T12:24:48.537Z,-3.06
2023-01-08T12:27:56.456Z,-3.03
2023-01-08T12:30:36.597Z,-3.07
2023-01-08T12:33:12.671Z,-3.14
2023-01-08T12:35:41.713Z,-3.23
2023-01-08T12:38:13.212Z,-3.30
2023-01-08T12:40:44.087Z,-3.36
2023-01-08T12:43:18.994Z,-3.33
2023-01-08T12:45:46.951Z,-3.33
2023-01-08T12:48:24.958Z,-3.35
2023-01-08T12:51:00.036Z,-3.35
2023-01-08T12:53:44.224Z,-3.38
2023-01-08T12:56:49.146Z,-3.38
2023-01-08T12:59:30.425Z,-3.40
2023-01-08T13:02:34.563Z,-3.50
2023-01-08T13:05:25.990Z,-3.66
2023-01-08T13:07:54.663Z,-3.79
2023-01-08T13:10:27.546Z,-3.80
2023-01-08T13:12:55.515Z,-3.81
2023-01-08T13:15:26.194Z,-3.82
2023-01-08T13:18:07.396Z,-3.80
2023-01-08T13:20:34.314Z,-3.82
2023-01-08T13:23:02.938Z,-3.81
2023-01-08T13:25:37.180Z,-3.80
2023-01-08T13:28:22.935Z,-3.77
2023-01-08T13:30:50.117Z,-3.78
2023-01-08T13:33:35.411Z,-3.75
2023-01-08T13:36:30.444Z,-3.72
2023-01-08T13:39:06.754Z,-3.73
2023-01-08T13:41:35.273Z,-3.75
2023-01-08T13:44:04.460Z,-3.73
2023-01-08T13:46:36.514Z,-3.69
2023-01-08T13:49:23.801Z,-3.66
2023-01-08T13:51:50.732Z,-3.64
2023-01-08T13:54:21.133Z,-3.64
2023-01-08T13:56:49.682Z,-3.62
2023-01-08T13:59:21.199Z,-3.61
2023-01-08T14:01:55.232Z,-3.62
2023-01-08T14:04:23.170Z,-3.62
2023-01-08T14:06:50.249Z,-3.63
2023-01-08T14:09:23.719Z,-3.64
2023-01-08T14:11:55.930Z,-3.67
2023-01-08T14:14:23.223Z,-3.69
2023-01-08T14:16:51.665Z,-3.67
2023-01-08T14:19:23.504Z,-3.68
2023-01-08T14:21:58.136Z,-3.74
2023-01-08T14:24:25.488Z,-3.78
2023-01-08T14:26:53.300Z,-3.77
2023-01-08T14:29:21.849Z,-3.78
2023-01-08T14:31:52.199Z,-3.76
2023-01-08T14:34:20.203Z,-3.73
2023-01-08T14:36:47.041Z,-3.74
2023-01-08T14:39:22.187Z,-3.78
2023-01-08T14:42:07.743Z,-3.87
2023-01-08T14:44:40.461Z,-3.87
2023-01-08T14:47:17.411Z,-3.86
2023-01-08T14:49:47.884Z,-3.87
2023-01-08T14:52:18.382Z,-3.84
2023-01-08T14:54:45.561Z,-3.85
2023-01-08T14:57:12.506Z,-3.89
2023-01-08T14:59:39.308Z,-3.91
2023-01-08T15:02:15.492Z,-3.93
2023-01-08T15:04:42.554Z,-3.95
2023-01-08T15:07:19.135Z,-3.97
2023-01-08T15:09:55.313Z,-4.00
2023-01-08T15:12:24.500Z,-4.02
2023-01-08T15:14:51.529Z,-4.01
2023-01-08T15:17:19.816Z,-4.07
2023-01-08T15:19:54.609Z,-4.13
2023-01-08T15:22:24.036Z,-4.25
2023-01-08T15:25:01.801Z,-4.31
2023-01-08T15:27:29.979Z,-4.32
2023-01-08T15:30:00.432Z,-4.34
2023-01-08T15:32:32.765Z,-4.34
2023-01-08T15:34:59.854Z,-4.34
2023-01-08T15:37:26.905Z,-4.40
2023-01-08T15:39:53.854Z,-4.40
2023-01-08T15:42:41.681Z,-4.37
2023-01-08T15:45:19.591Z,-4.38
2023-01-08T15:47:46.640Z,-4.41
2023-01-08T15:50:13.570Z,-4.47
2023-01-08T15:52:41.726Z,-4.47
2023-01-08T15:55:15.672Z,-4.45
2023-01-08T15:57:42.503Z,-4.44
2023-01-08T16:00:12.044Z,-4.44
2023-01-08T16:02:46.279Z,-4.45
2023-01-08T18:21:45.323Z,-5.58
2023-01-08T18:24:12.476Z,-5.56
2023-01-08T18:26:39.382Z,-5.58
2023-01-08T18:29:06.295Z,-5.64
2023-01-08T18:31:33.298Z,-5.67
2023-01-08T18:34:00.867Z,-5.66
2023-01-08T18:36:27.998Z,-5.69
2023-01-08T18:38:57.107Z,-5.76
2023-01-08T18:41:42.587Z,-5.82
2023-01-08T18:44:10.281Z,-5.89
2023-01-08T18:46:37.507Z,-5.89
2023-01-08T18:49:04.962Z,-5.87
2023-01-08T18:51:32.113Z,-5.89
2023-01-08T18:53:58.914Z,-5.93
2023-01-08T18:56:30.689Z,-5.95
2023-01-08T18:58:57.529Z,-5.97
2023-01-08T19:01:24.805Z,-6.00
2023-01-08T19:03:52.098Z,-6.04
2023-01-08T19:06:19.088Z,-6.09
2023-01-08T19:08:45.980Z,-6.14
2023-01-08T19:11:13.172Z,-6.18
2023-01-08T19:13:40.436Z,-6.21
2023-01-08T19:16:09.063Z,-6.25
2023-01-08T19:18:36.186Z,-6.26
2023-01-08T19:21:03.373Z,-6.22
2023-01-08T19:23:30.897Z,-6.19
2023-01-08T19:25:58.055Z,-6.17
2023-01-08T19:28:24.949Z,-6.11
2023-01-08T19:30:56.227Z,-6.08
2023-01-08T19:33:23.178Z,-6.09
2023-01-08T19:35:50.180Z,-6.13
2023-01-08T19:38:17.682Z,-6.15
2023-01-08T19:40:44.594Z,-6.14
2023-01-08T19:43:31.437Z,-6.14
2023-01-08T19:46:04.867Z,-6.15
2023-01-08T19:48:32.368Z,-6.16
2023-01-08T19:50:59.645Z,-6.20
2023-01-08T19:53:26.611Z,-6.24
2023-01-08T19:55:53.636Z,-6.23
2023-01-08T19:58:23.658Z,-6.24
2023-01-08T20:00:50.652Z,-6.28
2023-01-08T20:03:23.685Z,-6.26
2023-01-08T20:05:50.709Z,-6.21
2023-01-08T20:08:18.097Z,-6.20
2023-01-08T20:10:45.256Z,-6.24
2023-01-08T20:13:12.471Z,-6.31
2023-01-08T20:15:39.540Z,-6.36
2023-01-08T20:18:06.382Z,-6.37
2023-01-08T20:20:33.172Z,-6.34
2023-01-08T20:23:00.045Z,-6.31
2023-01-08T20:25:27.114Z,-6.30
2023-01-08T20:27:54.263Z,-6.34
2023-01-08T20:30:21.107Z,-6.37
2023-01-08T20:32:47.872Z,-6.39
2023-01-08T20:35:14.693Z,-6.44
2023-01-08T20:37:41.841Z,-6.44
2023-01-08T20:40:09.360Z,-6.43
2023-01-08T20:42:36.249Z,-6.42
2023-01-08T20:45:03.089Z,-6.46
2023-01-08T20:47:30.067Z,-6.44
2023-01-08T20:49:56.897Z,-6.43
2023-01-08T20:52:23.664Z,-6.45
2023-01-08T20:54:53.011Z,-6.51
2023-01-08T20:57:20.267Z,-6.54
2023-01-08T20:59:47.251Z,-6.58
2023-01-08T21:02:14.326Z,-6.56
2023-01-08T21:04:41.920Z,-6.52
2023-01-08T21:07:09.200Z,-6.53
2023-01-08T21:09:36.059Z,-6.55
2023-01-08T21:12:02.992Z,-6.51
2023-01-08T21:14:29.832Z,-6.47
2023-01-08T21:16:56.868Z,-6.40
2023-01-08T21:19:23.704Z,-6.36
2023-01-08T21:21:50.727Z,-6.32
2023-01-08T21:24:17.685Z,-6.31
2023-01-08T21:26:44.660Z,-6.32
2023-01-08T21:29:11.397Z,-6.36
2023-01-08T21:31:38.993Z,-6.38
2023-01-08T21:34:06.332Z,-6.39
2023-01-08T21:36:33.258Z,-6.39
2023-01-08T21:39:01.058Z,-6.40
2023-01-08T21:41:47.241Z,-6.43
2023-01-08T21:44:34.923Z,-6.45
2023-01-08T21:47:02.045Z,-6.47
2023-01-08T21:49:29.217Z,-6.48
2023-01-08T21:52:15.024Z,-6.47
2023-01-08T21:54:42.095Z,-6.46
2023-01-08T21:57:09.414Z,-6.49
2023-01-08T21:59:36.298Z,-6.50
2023-01-08T22:02:03.546Z,-6.46
2023-01-08T22:04:30.465Z,-6.46
2023-01-08T22:06:57.501Z,-6.47
2023-01-08T22:09:24.439Z,-6.47
2023-01-08T22:11:51.384Z,-6.44
2023-01-08T22:14:18.244Z,-6.43
2023-01-08T22:16:45.069Z,-6.42
2023-01-08T22:19:11.931Z,-6.46
2023-01-08T22:21:39.063Z,-6.47
2023-01-08T22:24:06.665Z,-6.40
2023-01-08T22:26:35.243Z,-6.35
2023-01-08T22:29:03.322Z,-6.35
2023-01-08T22:31:30.374Z,-6.35
2023-01-08T22:33:57.371Z,-6.35
2023-01-08T22:36:24.289Z,-6.37
2023-01-08T22:38:51.108Z,-6.38
2023-01-08T22:41:21.120Z,-6.40
2023-01-08T22:43:48.120Z,-6.40
2023-01-08T22:46:16.386Z,-6.40
2023-01-08T22:48:43.721Z,-6.39
2023-01-08T22:51:10.810Z,-6.39
2023-01-08T22:53:37.620Z,-6.37
2023-01-08T22:56:12.276Z,-6.35
2023-01-08T22:58:40.620Z,-6.36
2023-01-08T23:01:15.152Z,-6.30
2023-01-08T23:03:44.181Z,-6.26
2023-01-08T23:06:14.698Z,-6.26
2023-01-08T23:08:42.152Z,-6.27
2023-01-08T23:11:09.825Z,-6.31
2023-01-08T23:13:36.914Z,-6.31
2023-01-08T23:16:04.637Z,-6.29
2023-01-08T23:18:31.425Z,-6.29
2023-01-08T23:21:06.331Z,-6.30
2023-01-08T23:23:33.248Z,-6.33
2023-01-08T23:26:07.952Z,-6.31
2023-01-08T23:28:34.788Z,-6.32
2023-01-08T23:31:01.566Z,-6.37
2023-01-08T23:33:28.320Z,-6.37
2023-01-08T23:35:55.231Z,-6.29
2023-01-08T23:38:22.075Z,-6.27
2023-01-08T23:40:48.956Z,-6.28
2023-01-08T23:43:15.781Z,-6.27
2023-01-08T23:45:42.564Z,-6.26
2023-01-08T23:48:09.467Z,-6.25
2023-01-08T23:50:36.269Z,-6.27
2023-01-08T23:53:03.331Z,-6.36
2023-01-08T23:55:30.149Z,-6.45
2023-01-08T23:57:57.128Z,-6.51
